sensor_id;sensor_type;location;lat;lon;timestamp;pressure;altitude;pressure_sealevel;temperature;humidity
36748;BME280;22716;51.556;5.080;2023-04-05T00:01:36;101772.44;;;6.51;84.15
36748;BME280;22716;51.556;5.080;2023-04-05T00:04:05;101765.50;;;6.51;84.19
36748;BME280;22716;51.556;5.080;2023-04-05T00:06:34;101773.34;;;6.53;84.04
36748;BME280;22716;51.556;5.080;2023-04-05T00:09:04;101778.47;;;6.50;84.31
36748;BME280;22716;51.556;5.080;2023-04-05T00:11:33;101773.25;;;6.50;84.18
36748;BME280;22716;51.556;5.080;2023-04-05T00:14:02;101768.88;;;6.46;84.24
36748;BME280;22716;51.556;5.080;2023-04-05T00:16:34;101770.47;;;6.41;84.53
36748;BME280;22716;51.556;5.080;2023-04-05T00:19:03;101774.78;;;6.39;84.71
36748;BME280;22716;51.556;5.080;2023-04-05T00:21:32;101764.28;;;6.36;84.83
36748;BME280;22716;51.556;5.080;2023-04-05T00:24:03;101769.44;;;6.33;85.07
36748;BME280;22716;51.556;5.080;2023-04-05T00:26:32;101773.75;;;6.32;85.59
36748;BME280;22716;51.556;5.080;2023-04-05T00:29:01;101769.38;;;6.31;85.59
36748;BME280;22716;51.556;5.080;2023-04-05T00:31:30;101759.09;;;6.36;85.72
36748;BME280;22716;51.556;5.080;2023-04-05T00:34:02;101759.03;;;6.33;85.75
36748;BME280;22716;51.556;5.080;2023-04-05T00:36:34;101759.59;;;6.19;85.89
36748;BME280;22716;51.556;5.080;2023-04-05T00:39:03;101759.63;;;6.21;86.59
36748;BME280;22716;51.556;5.080;2023-04-05T00:41:32;101759.50;;;6.15;86.60
36748;BME280;22716;51.556;5.080;2023-04-05T00:44:01;101756.91;;;6.15;87.03
36748;BME280;22716;51.556;5.080;2023-04-05T00:46:33;101757.66;;;6.09;87.05
36748;BME280;22716;51.556;5.080;2023-04-05T00:49:05;101731.28;;;5.94;87.29
36748;BME280;22716;51.556;5.080;2023-04-05T00:51:35;101756.75;;;6.07;87.83
36748;BME280;22716;51.556;5.080;2023-04-05T00:54:05;101748.94;;;6.07;87.89
36748;BME280;22716;51.556;5.080;2023-04-05T00:56:33;101748.88;;;6.04;88.25
36748;BME280;22716;51.556;5.080;2023-04-05T00:59:02;101750.53;;;6.01;88.59
36748;BME280;22716;51.556;5.080;2023-04-05T01:01:32;101752.16;;;5.97;88.63
36748;BME280;22716;51.556;5.080;2023-04-05T01:04:05;101751.34;;;5.98;88.92
36748;BME280;22716;51.556;5.080;2023-04-05T01:06:54;101742.56;;;5.95;89.03
36748;BME280;22716;51.556;5.080;2023-04-05T01:09:33;101737.31;;;5.93;89.25
36748;BME280;22716;51.556;5.080;2023-04-05T01:12:06;101744.22;;;5.90;89.21
36748;BME280;22716;51.556;5.080;2023-04-05T01:14:44;101719.75;;;5.83;89.22
36748;BME280;22716;51.556;5.080;2023-04-05T01:17:15;101734.78;;;5.96;89.24
36748;BME280;22716;51.556;5.080;2023-04-05T01:19:51;101736.47;;;5.93;89.57
36748;BME280;22716;51.556;5.080;2023-04-05T01:23:02;101730.25;;;5.86;89.57
36748;BME280;22716;51.556;5.080;2023-04-05T01:26:08;101731.84;;;5.81;89.77
36748;BME280;22716;51.556;5.080;2023-04-05T01:28:57;101730.06;;;5.80;90.29
36748;BME280;22716;51.556;5.080;2023-04-05T01:31:31;101721.31;;;5.77;89.99
36748;BME280;22716;51.556;5.080;2023-04-05T01:34:12;101722.00;;;5.70;90.15
36748;BME280;22716;51.556;5.080;2023-04-05T01:36:48;101719.34;;;5.66;90.08
36748;BME280;22716;51.556;5.080;2023-04-05T01:39:19;101720.13;;;5.62;90.56
36748;BME280;22716;51.556;5.080;2023-04-05T01:41:48;101724.28;;;5.56;90.85
36748;BME280;22716;51.556;5.080;2023-04-05T01:44:17;101732.91;;;5.55;91.12
36748;BME280;22716;51.556;5.080;2023-04-05T01:46:49;101725.94;;;5.52;91.34
36748;BME280;22716;51.556;5.080;2023-04-05T01:49:18;101720.59;;;5.46;91.64
36748;BME280;22716;51.556;5.080;2023-04-05T01:51:46;101718.78;;;5.42;91.75
36748;BME280;22716;51.556;5.080;2023-04-05T01:54:15;101711.63;;;5.34;92.11
36748;BME280;22716;51.556;5.080;2023-04-05T01:56:44;101704.66;;;5.33;92.51
36748;BME280;22716;51.556;5.080;2023-04-05T01:59:12;101710.09;;;5.42;92.74
36748;BME280;22716;51.556;5.080;2023-04-05T02:01:41;101696.97;;;5.37;92.77
36748;BME280;22716;51.556;5.080;2023-04-05T02:04:12;101702.97;;;5.33;93.11
36748;BME280;22716;51.556;5.080;2023-04-05T02:06:41;101704.59;;;5.30;93.35
36748;BME280;22716;51.556;5.080;2023-04-05T02:09:10;101694.09;;;5.25;93.39
36748;BME280;22716;51.556;5.080;2023-04-05T02:11:38;101704.59;;;5.30;93.75
36748;BME280;22716;51.556;5.080;2023-04-05T02:14:07;101703.75;;;5.31;93.75
36748;BME280;22716;51.556;5.080;2023-04-05T02:16:36;101694.28;;;5.33;93.59
36748;BME280;22716;51.556;5.080;2023-04-05T02:19:05;101690.84;;;5.34;93.58
36748;BME280;22716;51.556;5.080;2023-04-05T02:21:36;101697.84;;;5.38;93.47
36748;BME280;22716;51.556;5.080;2023-04-05T02:24:06;101693.44;;;5.34;93.94
36748;BME280;22716;51.556;5.080;2023-04-05T02:26:35;101691.44;;;5.24;94.06
36748;BME280;22716;51.556;5.080;2023-04-05T02:29:04;101679.94;;;5.14;94.71
36748;BME280;22716;51.556;5.080;2023-04-05T02:31:33;101695.59;;;5.17;95.21
36748;BME280;22716;51.556;5.080;2023-04-05T02:34:01;101686.19;;;5.21;95.02
36748;BME280;22716;51.556;5.080;2023-04-05T02:36:36;101677.44;;;5.17;94.93
36748;BME280;22716;51.556;5.080;2023-04-05T02:39:06;101687.06;;;5.21;94.66
36748;BME280;22716;51.556;5.080;2023-04-05T02:41:35;101691.28;;;5.16;94.69
36748;BME280;22716;51.556;5.080;2023-04-05T02:44:04;101680.66;;;5.07;94.60
36748;BME280;22716;51.556;5.080;2023-04-05T02:46:33;101675.31;;;5.02;94.43
36748;BME280;22716;51.556;5.080;2023-04-05T02:49:01;101676.28;;;5.04;94.36
36748;BME280;22716;51.556;5.080;2023-04-05T02:51:30;101678.06;;;5.07;94.08
36748;BME280;22716;51.556;5.080;2023-04-05T02:54:03;101688.47;;;5.08;93.66
36748;BME280;22716;51.556;5.080;2023-04-05T02:56:32;101678.00;;;5.05;93.49
36748;BME280;22716;51.556;5.080;2023-04-05T02:59:01;101670.22;;;5.05;93.00
36748;BME280;22716;51.556;5.080;2023-04-05T03:01:30;101674.69;;;5.11;92.69
36748;BME280;22716;51.556;5.080;2023-04-05T03:04:01;101675.56;;;5.12;92.42
36748;BME280;22716;51.556;5.080;2023-04-05T03:06:29;101669.47;;;5.09;92.12
36748;BME280;22716;51.556;5.080;2023-04-05T03:08:58;101664.03;;;5.00;91.62
36748;BME280;22716;51.556;5.080;2023-04-05T03:11:31;101660.63;;;5.03;91.01
36748;BME280;22716;51.556;5.080;2023-04-05T03:14:00;101663.06;;;4.97;90.83
36748;BME280;22716;51.556;5.080;2023-04-05T03:16:29;101666.56;;;4.97;90.63
36748;BME280;22716;51.556;5.080;2023-04-05T03:18:59;101649.97;;;4.92;90.36
36748;BME280;22716;51.556;5.080;2023-04-05T03:21:30;101635.94;;;4.84;89.84
36748;BME280;22716;51.556;5.080;2023-04-05T03:23:59;101659.56;;;4.95;89.37
36748;BME280;22716;51.556;5.080;2023-04-05T03:26:31;101652.50;;;4.89;89.15
36748;BME280;22716;51.556;5.080;2023-04-05T03:29:00;101658.59;;;4.90;88.85
36748;BME280;22716;51.556;5.080;2023-04-05T03:31:29;101650.81;;;4.91;88.52
36748;BME280;22716;51.556;5.080;2023-04-05T03:33:57;101646.38;;;4.87;87.96
36748;BME280;22716;51.556;5.080;2023-04-05T03:36:26;101647.22;;;4.86;87.59
36748;BME280;22716;51.556;5.080;2023-04-05T03:39:06;101645.44;;;4.84;86.81
36748;BME280;22716;51.556;5.080;2023-04-05T03:41:39;101647.09;;;4.82;86.45
36748;BME280;22716;51.556;5.080;2023-04-05T03:44:08;101642.78;;;4.82;86.04
36748;BME280;22716;51.556;5.080;2023-04-05T03:46:37;101640.19;;;4.82;85.10
36748;BME280;22716;51.556;5.080;2023-04-05T03:49:07;101648.88;;;4.83;84.41
36748;BME280;22716;51.556;5.080;2023-04-05T03:51:36;101643.66;;;4.81;83.86
36748;BME280;22716;51.556;5.080;2023-04-05T03:54:05;101642.88;;;4.85;83.32
36748;BME280;22716;51.556;5.080;2023-04-05T03:56:33;101650.56;;;4.82;82.59
36748;BME280;22716;51.556;5.080;2023-04-05T03:59:05;101639.16;;;4.76;82.10
36748;BME280;22716;51.556;5.080;2023-04-05T04:01:34;101628.59;;;4.68;81.70
36748;BME280;22716;51.556;5.080;2023-04-05T04:04:03;101640.81;;;4.72;81.19
36748;BME280;22716;51.556;5.080;2023-04-05T04:06:32;101645.94;;;4.69;80.97
36748;BME280;22716;51.556;5.080;2023-04-05T04:09:01;101648.53;;;4.71;80.51
36748;BME280;22716;51.556;5.080;2023-04-05T04:11:30;101645.94;;;4.69;80.49
36748;BME280;22716;51.556;5.080;2023-04-05T04:13:59;101644.97;;;4.67;80.03
36748;BME280;22716;51.556;5.080;2023-04-05T04:16:30;101638.88;;;4.65;79.80
36748;BME280;22716;51.556;5.080;2023-04-05T04:18:59;101641.53;;;4.67;79.50
36748;BME280;22716;51.556;5.080;2023-04-05T04:21:27;101650.19;;;4.67;79.24
36748;BME280;22716;51.556;5.080;2023-04-05T04:23:57;101644.16;;;4.68;79.10
36748;BME280;22716;51.556;5.080;2023-04-05T04:26:25;101642.31;;;4.64;79.21
36748;BME280;22716;51.556;5.080;2023-04-05T04:28:54;101645.53;;;4.54;79.80
36748;BME280;22716;51.556;5.080;2023-04-05T04:31:23;101653.06;;;4.45;80.11
36748;BME280;22716;51.556;5.080;2023-04-05T04:33:54;101634.84;;;4.43;80.34
36748;BME280;22716;51.556;5.080;2023-04-05T04:36:24;101636.66;;;4.46;80.55
36748;BME280;22716;51.556;5.080;2023-04-05T04:39:01;101646.00;;;4.41;80.97
36748;BME280;22716;51.556;5.080;2023-04-05T04:41:32;101639.81;;;4.36;81.43
36748;BME280;22716;51.556;5.080;2023-04-05T04:44:03;101635.34;;;4.30;82.08
36748;BME280;22716;51.556;5.080;2023-04-05T04:46:33;101638.59;;;4.23;82.50
36748;BME280;22716;51.556;5.080;2023-04-05T04:49:10;101635.28;;;4.27;82.53
36748;BME280;22716;51.556;5.080;2023-04-05T04:51:39;101618.63;;;4.19;82.64
36748;BME280;22716;51.556;5.080;2023-04-05T04:54:07;101634.63;;;4.34;82.16
36748;BME280;22716;51.556;5.080;2023-04-05T04:56:37;101636.31;;;4.34;81.76
36748;BME280;22716;51.556;5.080;2023-04-05T04:59:06;101632.88;;;4.35;81.28
36748;BME280;22716;51.556;5.080;2023-04-05T05:01:35;101624.16;;;4.31;81.01
36748;BME280;22716;51.556;5.080;2023-04-05T05:04:05;101632.78;;;4.32;81.45
36748;BME280;22716;51.556;5.080;2023-04-05T05:06:37;101629.44;;;4.36;81.05
36748;BME280;22716;51.556;5.080;2023-04-05T05:09:06;101622.31;;;4.29;80.79
36748;BME280;22716;51.556;5.080;2023-04-05T05:11:34;101613.56;;;4.24;80.75
36748;BME280;22716;51.556;5.080;2023-04-05T05:14:03;101633.72;;;4.34;80.68
36748;BME280;22716;51.556;5.080;2023-04-05T05:16:32;101637.13;;;4.31;80.62
36748;BME280;22716;51.556;5.080;2023-04-05T05:19:00;101632.84;;;4.33;80.30
36748;BME280;22716;51.556;5.080;2023-04-05T05:21:29;101630.25;;;4.33;79.43
36748;BME280;22716;51.556;5.080;2023-04-05T05:24:00;101632.06;;;4.37;78.85
36748;BME280;22716;51.556;5.080;2023-04-05T05:26:31;101630.34;;;4.38;78.45
36748;BME280;22716;51.556;5.080;2023-04-05T05:29:03;101614.59;;;4.30;78.09
36748;BME280;22716;51.556;5.080;2023-04-05T05:31:31;101630.41;;;4.39;77.65
36748;BME280;22716;51.556;5.080;2023-04-05T05:34:01;101635.59;;;4.39;77.34
36748;BME280;22716;51.556;5.080;2023-04-05T05:36:29;101632.94;;;4.38;77.08
36748;BME280;22716;51.556;5.080;2023-04-05T05:39:01;101612.09;;;4.33;76.85
36748;BME280;22716;51.556;5.080;2023-04-05T05:41:33;101639.34;;;4.50;76.84
36748;BME280;22716;51.556;5.080;2023-04-05T05:44:02;101634.09;;;4.47;76.99
36748;BME280;22716;51.556;5.080;2023-04-05T05:46:31;101640.41;;;4.57;76.88
36748;BME280;22716;51.556;5.080;2023-04-05T05:48:59;101635.38;;;4.63;76.38
36748;BME280;22716;51.556;5.080;2023-04-05T05:51:28;101626.72;;;4.64;76.07
36748;BME280;22716;51.556;5.080;2023-04-05T05:54:00;101639.13;;;4.74;75.80
36748;BME280;22716;51.556;5.080;2023-04-05T05:56:29;101646.25;;;4.81;75.37
36748;BME280;22716;51.556;5.080;2023-04-05T05:58:58;101641.91;;;4.82;75.04
36748;BME280;22716;51.556;5.080;2023-04-05T06:01:27;101651.56;;;4.87;74.84
36748;BME280;22716;51.556;5.080;2023-04-05T06:03:55;101637.75;;;4.88;74.88
36748;BME280;22716;51.556;5.080;2023-04-05T06:06:24;101640.72;;;5.03;74.51
36748;BME280;22716;51.556;5.080;2023-04-05T06:08:55;101644.44;;;5.13;74.03
36748;BME280;22716;51.556;5.080;2023-04-05T06:11:26;101644.59;;;5.19;73.51
36748;BME280;22716;51.556;5.080;2023-04-05T06:13:55;101650.78;;;5.26;73.06
36748;BME280;22716;51.556;5.080;2023-04-05T06:16:25;101645.75;;;5.32;72.46
36748;BME280;22716;51.556;5.080;2023-04-05T06:18:55;101649.88;;;5.61;71.59
36748;BME280;22716;51.556;5.080;2023-04-05T06:21:24;101650.72;;;5.97;70.29
36748;BME280;22716;51.556;5.080;2023-04-05T06:23:53;101648.50;;;6.15;69.71
36748;BME280;22716;51.556;5.080;2023-04-05T06:26:23;101638.69;;;6.02;69.56
36748;BME280;22716;51.556;5.080;2023-04-05T06:28:55;101652.56;;;6.01;69.86
36748;BME280;22716;51.556;5.080;2023-04-05T06:31:30;101644.63;;;5.95;69.66
36748;BME280;22716;51.556;5.080;2023-04-05T06:33:59;101649.84;;;5.97;69.63
36748;BME280;22716;51.556;5.080;2023-04-05T06:36:29;101638.41;;;5.90;69.52
36748;BME280;22716;51.556;5.080;2023-04-05T06:38:59;101657.69;;;5.98;69.01
36748;BME280;22716;51.556;5.080;2023-04-05T06:41:27;101650.84;;;6.03;68.57
36748;BME280;22716;51.556;5.080;2023-04-05T06:43:59;101627.28;;;5.96;68.13
36748;BME280;22716;51.556;5.080;2023-04-05T06:46:28;101635.50;;;6.15;68.10
36748;BME280;22716;51.556;5.080;2023-04-05T06:48:57;101654.03;;;6.31;67.52
36748;BME280;22716;51.556;5.080;2023-04-05T06:51:27;101645.56;;;6.44;67.27
36748;BME280;22716;51.556;5.080;2023-04-05T06:53:56;101642.66;;;6.73;66.46
36748;BME280;22716;51.556;5.080;2023-04-05T06:56:25;101643.06;;;6.96;65.67
36748;BME280;22716;51.556;5.080;2023-04-05T06:58:54;101638.72;;;6.95;65.49
36748;BME280;22716;51.556;5.080;2023-04-05T07:01:27;101626.31;;;6.82;65.53
36748;BME280;22716;51.556;5.080;2023-04-05T07:03:56;101629.81;;;6.83;65.23
36748;BME280;22716;51.556;5.080;2023-04-05T07:06:25;101638.50;;;6.85;65.23
36748;BME280;22716;51.556;5.080;2023-04-05T07:08:54;101644.69;;;6.90;65.13
36748;BME280;22716;51.556;5.080;2023-04-05T07:11:23;101638.72;;;6.95;64.79
36748;BME280;22716;51.556;5.080;2023-04-05T07:13:52;101637.09;;;7.03;64.16
36748;BME280;22716;51.556;5.080;2023-04-05T07:16:20;101625.69;;;6.97;63.86
36748;BME280;22716;51.556;5.080;2023-04-05T07:18:55;101636.31;;;7.07;63.46
36748;BME280;22716;51.556;5.080;2023-04-05T07:21:24;101638.19;;;7.17;63.12
36748;BME280;22716;51.556;5.080;2023-04-05T07:23:52;101647.94;;;7.29;62.61
36748;BME280;22716;51.556;5.080;2023-04-05T07:26:25;101649.72;;;7.31;62.55
36748;BME280;22716;51.556;5.080;2023-04-05T07:28:54;101653.38;;;7.43;61.99
36748;BME280;22716;51.556;5.080;2023-04-05T07:31:23;101635.22;;;7.50;61.56
36748;BME280;22716;51.556;5.080;2023-04-05T07:33:54;101640.63;;;7.62;61.02
36748;BME280;22716;51.556;5.080;2023-04-05T07:36:23;101613.66;;;7.63;61.24
36748;BME280;22716;51.556;5.080;2023-04-05T07:38:52;101641.81;;;7.87;60.98
36748;BME280;22716;51.556;5.080;2023-04-05T07:41:21;101635.81;;;7.91;60.65
36748;BME280;22716;51.556;5.080;2023-04-05T07:43:51;101643.75;;;8.00;59.96
36748;BME280;22716;51.556;5.080;2023-04-05T07:46:19;101635.97;;;8.05;59.11
36748;BME280;22716;51.556;5.080;2023-04-05T07:48:48;101641.28;;;8.14;58.40
36748;BME280;22716;51.556;5.080;2023-04-05T07:51:19;101642.28;;;8.22;57.83
36748;BME280;22716;51.556;5.080;2023-04-05T07:53:48;101638.06;;;8.30;57.63
36748;BME280;22716;51.556;5.080;2023-04-05T07:56:17;101649.50;;;8.39;56.61
36748;BME280;22716;51.556;5.080;2023-04-05T07:58:45;101648.66;;;8.42;55.59
36748;BME280;22716;51.556;5.080;2023-04-05T08:01:16;101649.53;;;8.45;55.15
36748;BME280;22716;51.556;5.080;2023-04-05T08:03:45;101649.59;;;8.52;54.99
36748;BME280;22716;51.556;5.080;2023-04-05T08:06:15;101645.31;;;8.57;54.49
36748;BME280;22716;51.556;5.080;2023-04-05T08:08:47;101647.13;;;8.62;53.89
36748;BME280;22716;51.556;5.080;2023-04-05T08:11:16;101648.91;;;8.68;53.89
36748;BME280;22716;51.556;5.080;2023-04-05T08:13:44;101624.50;;;8.63;53.57
36748;BME280;22716;51.556;5.080;2023-04-05T08:16:13;101648.16;;;8.81;53.67
36748;BME280;22716;51.556;5.080;2023-04-05T08:18:42;101640.34;;;8.84;54.06
36748;BME280;22716;51.556;5.080;2023-04-05T08:21:10;101633.31;;;8.77;53.70
36748;BME280;22716;51.556;5.080;2023-04-05T08:23:39;101642.13;;;8.88;54.00
36748;BME280;22716;51.556;5.080;2023-04-05T08:26:11;101638.72;;;8.96;53.93
36748;BME280;22716;51.556;5.080;2023-04-05T08:28:39;101632.66;;;9.00;53.79
36748;BME280;22716;51.556;5.080;2023-04-05T08:31:08;101641.44;;;9.09;53.73
36748;BME280;22716;51.556;5.080;2023-04-05T08:33:37;101641.47;;;9.13;nan
36748;BME280;22716;51.556;5.080;2023-04-05T08:36:07;101638.88;;;9.15;52.61
36748;BME280;22716;51.556;5.080;2023-04-05T08:38:37;101637.16;;;9.15;51.99
36748;BME280;22716;51.556;5.080;2023-04-05T08:41:07;101642.44;;;9.26;51.76
36748;BME280;22716;51.556;5.080;2023-04-05T08:43:46;101577.75;;;8.99;51.52
36748;BME280;22716;51.556;5.080;2023-04-05T08:46:21;101646.94;;;9.43;51.71
36748;BME280;22716;51.556;5.080;2023-04-05T08:48:52;101638.28;;;9.50;51.60
36748;BME280;22716;51.556;5.080;2023-04-05T08:51:21;101619.00;;;9.38;50.82
36748;BME280;22716;51.556;5.080;2023-04-05T08:53:52;101639.13;;;9.48;50.31
36748;BME280;22716;51.556;5.080;2023-04-05T08:56:24;101635.69;;;9.53;49.64
36748;BME280;22716;51.556;5.080;2023-04-05T08:59:01;101629.56;;;9.53;49.51
36748;BME280;22716;51.556;5.080;2023-04-05T09:01:31;101624.38;;;9.59;49.22
36748;BME280;22716;51.556;5.080;2023-04-05T09:04:04;101642.75;;;9.73;48.58
36748;BME280;22716;51.556;5.080;2023-04-05T09:06:35;101633.16;;;9.66;47.94
36748;BME280;22716;51.556;5.080;2023-04-05T09:09:06;101626.16;;;9.68;47.96
36748;BME280;22716;51.556;5.080;2023-04-05T09:11:36;101634.03;;;9.71;47.95
36748;BME280;22716;51.556;5.080;2023-04-05T09:14:08;101631.38;;;9.65;47.89
36748;BME280;22716;51.556;5.080;2023-04-05T09:16:38;101637.53;;;9.73;47.77
36748;BME280;22716;51.556;5.080;2023-04-05T09:19:08;101625.25;;;9.60;47.64
36748;BME280;22716;51.556;5.080;2023-04-05T09:21:59;101642.75;;;9.68;47.33
36748;BME280;22716;51.556;5.080;2023-04-05T09:24:34;101628.00;;;9.82;47.58
36748;BME280;22716;51.556;5.080;2023-04-05T09:27:07;101631.53;;;9.89;46.68
36748;BME280;22716;51.556;5.080;2023-04-05T09:29:40;101619.31;;;9.94;45.74
36748;BME280;22716;51.556;5.080;2023-04-05T09:32:10;101618.50;;;10.05;45.84
36748;BME280;22716;51.556;5.080;2023-04-05T09:34:40;101620.25;;;10.11;45.45
36748;BME280;22716;51.556;5.080;2023-04-05T09:37:13;101623.81;;;10.15;44.61
36748;BME280;22716;51.556;5.080;2023-04-05T09:39:43;101608.06;;;10.16;44.61
36748;BME280;22716;51.556;5.080;2023-04-05T09:42:15;101613.25;;;10.10;43.68
36748;BME280;22716;51.556;5.080;2023-04-05T09:44:51;101613.22;;;9.92;43.04
36748;BME280;22716;51.556;5.080;2023-04-05T09:47:21;101621.09;;;9.98;43.02
36748;BME280;22716;51.556;5.080;2023-04-05T09:49:50;101614.09;;;10.01;42.90
36748;BME280;22716;51.556;5.080;2023-04-05T09:52:23;101618.44;;;9.89;42.73
36748;BME280;22716;51.556;5.080;2023-04-05T09:54:54;101609.66;;;9.84;42.86
36748;BME280;22716;51.556;5.080;2023-04-05T09:57:24;101611.50;;;10.00;42.93
36748;BME280;22716;51.556;5.080;2023-04-05T09:59:57;101615.03;;;10.12;43.44
36748;BME280;22716;51.556;5.080;2023-04-05T10:02:34;101612.44;;;10.19;43.10
36748;BME280;22716;51.556;5.080;2023-04-05T10:05:06;101587.94;;;10.03;43.20
36748;BME280;22716;51.556;5.080;2023-04-05T10:07:38;101598.50;;;10.18;43.06
36748;BME280;22716;51.556;5.080;2023-04-05T10:10:09;101609.00;;;10.24;42.83
36748;BME280;22716;51.556;5.080;2023-04-05T10:12:39;101603.75;;;10.21;42.59
36748;BME280;22716;51.556;5.080;2023-04-05T10:15:12;101595.00;;;10.15;42.26
36748;BME280;22716;51.556;5.080;2023-04-05T10:17:46;101601.09;;;10.13;42.37
36748;BME280;22716;51.556;5.080;2023-04-05T10:20:17;101595.78;;;10.00;41.85
36748;BME280;22716;51.556;5.080;2023-04-05T10:23:04;101590.56;;;10.07;42.17
36748;BME280;22716;51.556;5.080;2023-04-05T10:25:45;101581.03;;;10.14;41.78
36748;BME280;22716;51.556;5.080;2023-04-05T10:28:23;101580.97;;;10.03;41.82
36748;BME280;22716;51.556;5.080;2023-04-05T10:31:08;101574.84;;;10.07;41.85
36748;BME280;22716;51.556;5.080;2023-04-05T10:33:44;101567.91;;;10.09;41.93
36748;BME280;22716;51.556;5.080;2023-04-05T10:36:26;101576.69;;;10.21;41.55
36748;BME280;22716;51.556;5.080;2023-04-05T10:39:07;101573.19;;;10.20;41.80
36748;BME280;22716;51.556;5.080;2023-04-05T10:41:41;101571.47;;;10.30;41.71
36748;BME280;22716;51.556;5.080;2023-04-05T10:44:14;101549.59;;;10.19;41.58
36748;BME280;22716;51.556;5.080;2023-04-05T10:46:46;101577.59;;;10.30;41.59
36748;BME280;22716;51.556;5.080;2023-04-05T10:49:21;101549.63;;;10.31;41.93
36748;BME280;22716;51.556;5.080;2023-04-05T10:51:51;101565.34;;;10.29;41.29
36748;BME280;22716;51.556;5.080;2023-04-05T10:54:21;101560.97;;;10.18;40.63
36748;BME280;22716;51.556;5.080;2023-04-05T10:56:50;101560.06;;;10.22;40.77
36748;BME280;22716;51.556;5.080;2023-04-05T10:59:19;101548.75;;;10.24;40.91
36748;BME280;22716;51.556;5.080;2023-04-05T11:01:53;101554.88;;;10.43;40.67
36748;BME280;22716;51.556;5.080;2023-04-05T11:04:22;101554.91;;;10.50;40.63
36748;BME280;22716;51.556;5.080;2023-04-05T11:07:12;101549.69;;;10.64;40.74
36748;BME280;22716;51.556;5.080;2023-04-05T11:09:54;101550.56;;;10.78;40.92
36748;BME280;22716;51.556;5.080;2023-04-05T11:15:32;101526.97;;;10.80;40.30
36748;BME280;22716;51.556;5.080;2023-04-05T11:18:08;101548.81;;;10.91;40.38
36748;BME280;22716;51.556;5.080;2023-04-05T11:20:42;101543.56;;;11.03;40.07
36748;BME280;22716;51.556;5.080;2023-04-05T11:23:13;101543.53;;;10.92;39.43
36748;BME280;22716;51.556;5.080;2023-04-05T11:25:50;101552.31;;;11.06;39.44
36748;BME280;22716;51.556;5.080;2023-04-05T11:28:23;101547.91;;;11.08;39.08
36748;BME280;22716;51.556;5.080;2023-04-05T11:30:54;101539.16;;;11.02;38.45
36748;BME280;22716;51.556;5.080;2023-04-05T11:33:58;101551.41;;;11.12;38.07
36748;BME280;22716;51.556;5.080;2023-04-05T11:36:42;101543.53;;;11.15;37.79
36748;BME280;22716;51.556;5.080;2023-04-05T11:39:25;101546.13;;;11.25;37.48
36748;BME280;22716;51.556;5.080;2023-04-05T11:41:57;101517.31;;;11.12;37.51
36748;BME280;22716;51.556;5.080;2023-04-05T11:44:27;101526.00;;;11.31;37.14
36748;BME280;22716;51.556;5.080;2023-04-05T11:46:56;101530.31;;;11.45;37.22
36748;BME280;22716;51.556;5.080;2023-04-05T11:49:28;101524.19;;;11.58;37.04
36748;BME280;22716;51.556;5.080;2023-04-05T11:51:57;101516.28;;;11.73;37.05
36748;BME280;22716;51.556;5.080;2023-04-05T11:54:33;101505.69;;;11.89;37.30
36748;BME280;22716;51.556;5.080;2023-04-05T11:57:02;101508.22;;;12.04;37.20
36748;BME280;22716;51.556;5.080;2023-04-05T11:59:32;101507.28;;;12.12;36.79
36748;BME280;22716;51.556;5.080;2023-04-05T12:02:03;101500.31;;;12.11;36.76
36748;BME280;22716;51.556;5.080;2023-04-05T12:04:36;101501.97;;;12.23;36.44
36748;BME280;22716;51.556;5.080;2023-04-05T12:07:16;101496.63;;;12.33;36.53
36748;BME280;22716;51.556;5.080;2023-04-05T12:10:03;101482.78;;;12.15;36.33
36748;BME280;22716;51.556;5.080;2023-04-05T12:12:34;101493.22;;;12.27;36.25
36748;BME280;22716;51.556;5.080;2023-04-05T12:15:05;101500.06;;;12.43;36.29
36748;BME280;22716;51.556;5.080;2023-04-05T12:17:42;101483.31;;;12.59;36.12
36748;BME280;22716;51.556;5.080;2023-04-05T12:20:16;101477.91;;;12.74;36.51
36748;BME280;22716;51.556;5.080;2023-04-05T12:22:47;101487.31;;;13.00;36.31
36748;BME280;22716;51.556;5.080;2023-04-05T12:25:17;101466.25;;;12.98;36.34
36748;BME280;22716;51.556;5.080;2023-04-05T12:27:46;101483.59;;;13.22;36.76
36748;BME280;22716;51.556;5.080;2023-04-05T12:30:16;101477.31;;;13.35;36.72
36748;BME280;22716;51.556;5.080;2023-04-05T12:32:47;101482.47;;;13.44;36.79
36748;BME280;22716;51.556;5.080;2023-04-05T12:35:21;101481.72;;;13.31;36.53
36748;BME280;22716;51.556;5.080;2023-04-05T12:37:56;101483.59;;;13.23;36.45
36748;BME280;22716;51.556;5.080;2023-04-05T12:40:26;101471.44;;;13.12;36.53
36748;BME280;22716;51.556;5.080;2023-04-05T12:43:00;101464.44;;;13.06;36.37
36748;BME280;22716;51.556;5.080;2023-04-05T12:45:31;101470.63;;;13.02;36.26
36748;BME280;22716;51.556;5.080;2023-04-05T12:48:08;101463.72;;;12.89;35.83
36748;BME280;22716;51.556;5.080;2023-04-05T12:50:44;101462.03;;;12.83;36.38
36748;BME280;22716;51.556;5.080;2023-04-05T12:53:18;101461.06;;;12.92;36.04
36748;BME280;22716;51.556;5.080;2023-04-05T12:55:48;101455.91;;;12.83;36.02
36748;BME280;22716;51.556;5.080;2023-04-05T12:58:18;101461.22;;;12.78;36.54
36748;BME280;22716;51.556;5.080;2023-04-05T13:00:48;101462.09;;;12.77;36.58
36748;BME280;22716;51.556;5.080;2023-04-05T13:03:20;101461.16;;;12.83;36.23
36748;BME280;22716;51.556;5.080;2023-04-05T13:05:52;101443.88;;;12.59;36.48
36748;BME280;22716;51.556;5.080;2023-04-05T13:08:20;101422.91;;;12.53;36.23
36748;BME280;22716;51.556;5.080;2023-04-05T13:10:51;101443.72;;;12.74;36.17
36748;BME280;22716;51.556;5.080;2023-04-05T13:13:20;101439.31;;;12.79;36.29
36748;BME280;22716;51.556;5.080;2023-04-05T13:15:49;101435.66;;;12.89;35.87
36748;BME280;22716;51.556;5.080;2023-04-05T13:18:18;101425.19;;;12.88;35.56
36748;BME280;22716;51.556;5.080;2023-04-05T13:20:46;101427.97;;;12.71;35.50
36748;BME280;22716;51.556;5.080;2023-04-05T13:23:18;101420.97;;;12.73;35.13